createdAt,value
2024-01-30T00:02:22.580Z,15.23
2024-01-30T00:04:50.499Z,14.30
2024-01-30T00:07:20.048Z,14.30
2024-01-30T00:09:49.181Z,15.63
2024-01-30T00:12:17.216Z,13.93
2024-01-30T00:14:45.574Z,13.40
2024-01-30T00:17:13.524Z,15.13
2024-01-30T00:19:41.545Z,14.83
2024-01-30T00:22:09.368Z,13.20
2024-01-30T00:24:38.595Z,15.87
2024-01-30T00:27:07.252Z,14.03
2024-01-30T00:29:35.344Z,13.80
2024-01-30T00:32:03.073Z,12.93
2024-01-30T00:34:31.315Z,13.30
2024-01-30T00:36:59.443Z,15.03
2024-01-30T00:39:27.351Z,14.40
2024-01-30T00:41:56.623Z,13.70
2024-01-30T00:44:24.663Z,14.57
2024-01-30T00:46:52.377Z,14.83
2024-01-30T00:49:20.205Z,14.83
2024-01-30T00:51:49.040Z,15.00
2024-01-30T00:54:16.855Z,15.70
2024-01-30T00:56:46.369Z,15.20
2024-01-30T00:59:15.797Z,14.73
2024-01-30T01:01:44.064Z,13.40
2024-01-30T01:04:11.822Z,13.60
2024-01-30T01:06:39.863Z,13.90
2024-01-30T01:09:08.051Z,14.43
2024-01-30T01:11:35.756Z,14.33
2024-01-30T01:14:03.516Z,13.33
2024-01-30T01:16:32.701Z,14.30
2024-01-30T01:19:01.426Z,15.20
2024-01-30T01:21:29.703Z,14.50
2024-01-30T01:23:57.746Z,14.50
2024-01-30T01:26:25.834Z,14.60
2024-01-30T01:28:53.631Z,15.20
2024-01-30T01:31:25.731Z,13.83
2024-01-30T01:33:55.352Z,12.87
2024-01-30T01:36:23.605Z,12.80
2024-01-30T01:38:51.293Z,13.80
2024-01-30T01:41:19.210Z,13.80
2024-01-30T01:43:47.494Z,14.00
2024-01-30T01:46:15.400Z,12.63
2024-01-30T01:48:44.582Z,14.17
2024-01-30T01:51:14.150Z,13.87
2024-01-30T01:53:42.143Z,12.90
2024-01-30T01:56:10.538Z,13.23
2024-01-30T01:58:39.776Z,14.37
2024-01-30T02:01:07.946Z,13.20
2024-01-30T02:03:36.617Z,13.87
2024-01-30T02:06:05.666Z,13.30
2024-01-30T02:08:34.881Z,13.63
2024-01-30T02:11:02.977Z,13.00
2024-01-30T02:13:31.113Z,14.00
2024-01-30T02:15:58.976Z,12.43
2024-01-30T02:18:27.269Z,14.07
2024-01-30T02:20:58.226Z,12.83
2024-01-30T02:23:28.500Z,14.37
2024-01-30T02:25:56.451Z,13.40
2024-01-30T02:28:24.549Z,15.03
2024-01-30T02:30:52.630Z,15.63
2024-01-30T02:33:20.515Z,13.90
2024-01-30T02:35:48.612Z,14.97
2024-01-30T02:38:17.549Z,13.83
2024-01-30T02:40:46.898Z,14.43
2024-01-30T02:43:15.274Z,13.20
2024-01-30T02:45:43.166Z,13.57
2024-01-30T02:48:11.405Z,12.77
2024-01-30T02:50:39.208Z,13.43
2024-01-30T02:53:07.109Z,13.80
2024-01-30T02:55:35.295Z,15.10
2024-01-30T02:58:04.580Z,12.10
2024-01-30T03:00:32.470Z,13.80
2024-01-30T03:03:00.631Z,13.40
2024-01-30T03:05:28.810Z,14.17
2024-01-30T03:07:56.644Z,13.43
2024-01-30T03:10:24.860Z,13.00
2024-01-30T03:12:52.908Z,15.83
2024-01-30T03:15:21.962Z,14.93
2024-01-30T03:17:49.952Z,14.60
2024-01-30T03:20:17.919Z,13.80
2024-01-30T03:22:46.114Z,13.37
2024-01-30T03:25:14.201Z,14.43
2024-01-30T03:27:42.332Z,14.53
2024-01-30T03:30:10.925Z,14.27
2024-01-30T03:32:40.556Z,13.53
2024-01-30T03:35:09.085Z,12.50
2024-01-30T03:37:37.036Z,14.07
2024-01-30T03:40:05.524Z,14.10
2024-01-30T03:42:33.834Z,14.50
2024-01-30T03:45:01.539Z,14.70
2024-01-30T03:47:29.820Z,15.27
2024-01-30T03:49:59.118Z,12.70
2024-01-30T03:52:26.921Z,13.97
2024-01-30T03:54:54.876Z,14.00
2024-01-30T03:57:23.144Z,14.13
2024-01-30T03:59:51.063Z,14.10
2024-01-30T04:02:19.113Z,12.87
2024-01-30T04:04:47.857Z,13.50
2024-01-30T04:07:17.104Z,13.97
2024-01-30T04:09:45.058Z,13.57
2024-01-30T04:12:12.921Z,13.93
2024-01-30T04:14:41.364Z,15.50
2024-01-30T04:17:09.549Z,14.63
2024-01-30T04:19:39.690Z,14.20
2024-01-30T04:22:07.917Z,16.57
2024-01-30T04:24:37.068Z,15.07
2024-01-30T04:27:05.379Z,14.07
2024-01-30T04:29:34.509Z,14.43
2024-01-30T04:32:02.604Z,13.27
2024-01-30T04:34:30.778Z,14.50
2024-01-30T04:36:59.496Z,15.20
2024-01-30T04:39:27.239Z,13.30
2024-01-30T04:41:56.396Z,14.00
2024-01-30T04:44:24.133Z,14.13
2024-01-30T04:46:51.938Z,14.57
2024-01-30T04:49:19.795Z,15.27
2024-01-30T04:51:47.583Z,14.03
2024-01-30T04:54:15.560Z,14.90
2024-01-30T04:56:43.356Z,14.23
2024-01-30T04:59:12.393Z,12.73
2024-01-30T05:01:40.232Z,14.77
2024-01-30T05:04:10.873Z,15.23
2024-01-30T05:06:39.885Z,14.47
2024-01-30T05:09:07.639Z,14.93
2024-01-30T05:11:40.780Z,15.07
2024-01-30T05:14:09.698Z,15.90
2024-01-30T05:16:39.344Z,14.37
2024-01-30T05:19:07.241Z,13.67
2024-01-30T05:21:35.235Z,14.50
2024-01-30T05:24:03.220Z,15.60
2024-01-30T05:26:31.280Z,14.43
2024-01-30T05:28:59.235Z,14.60
2024-01-30T05:31:28.376Z,14.50
2024-01-30T05:33:58.187Z,15.53
2024-01-30T05:36:26.046Z,13.37
2024-01-30T05:38:53.948Z,14.17
2024-01-30T05:41:22.987Z,14.47
2024-01-30T05:43:51.003Z,13.67
2024-01-30T05:46:19.771Z,13.50
2024-01-30T05:48:49.206Z,13.83
2024-01-30T05:51:18.416Z,12.90
2024-01-30T05:53:46.240Z,13.27
2024-01-30T05:56:14.165Z,13.20
2024-01-30T05:58:42.316Z,14.70
2024-01-30T06:01:12.427Z,12.50
2024-01-30T06:03:40.722Z,14.17
2024-01-30T06:06:09.159Z,14.70
2024-01-30T06:08:38.398Z,14.30
2024-01-30T06:11:06.275Z,13.77
2024-01-30T06:13:34.422Z,14.63
2024-01-30T06:16:02.287Z,13.73
2024-01-30T06:18:32.136Z,14.47
2024-01-30T06:20:59.854Z,14.30
2024-01-30T06:23:27.551Z,14.90
2024-01-30T06:25:56.689Z,14.10
2024-01-30T06:28:24.769Z,14.30
2024-01-30T06:30:52.773Z,15.57
2024-01-30T06:33:20.853Z,17.13
2024-01-30T06:35:48.800Z,16.83
2024-01-30T06:38:17.023Z,16.83
2024-01-30T06:40:44.895Z,16.27
2024-01-30T06:43:14.827Z,14.23
2024-01-30T06:45:44.187Z,16.80
2024-01-30T06:48:12.115Z,14.93
2024-01-30T06:50:40.193Z,15.43
2024-01-30T06:53:07.966Z,17.73
2024-01-30T06:55:37.449Z,17.17
2024-01-30T06:58:05.561Z,16.23
2024-01-30T07:00:34.777Z,17.30
2024-01-30T07:03:02.743Z,17.27
2024-01-30T07:05:31.162Z,17.30
2024-01-30T07:07:59.102Z,15.90
2024-01-30T07:10:27.518Z,19.23
2024-01-30T07:12:55.717Z,18.53
2024-01-30T07:15:23.704Z,19.40
2024-01-30T07:17:52.947Z,17.20
2024-01-30T07:20:21.828Z,17.70
2024-01-30T07:22:49.682Z,18.70
2024-01-30T07:25:18.885Z,17.33
2024-01-30T07:27:46.779Z,18.93
2024-01-30T07:30:14.980Z,17.80
2024-01-30T07:32:42.876Z,19.40
2024-01-30T07:35:12.661Z,17.60
2024-01-30T07:37:40.695Z,17.47
2024-01-30T07:40:09.727Z,17.87
2024-01-30T07:42:37.621Z,18.33
2024-01-30T07:45:06.473Z,19.00
2024-01-30T07:47:34.235Z,17.27
2024-01-30T07:50:02.506Z,17.67
2024-01-30T07:52:31.675Z,16.90
2024-01-30T07:54:59.436Z,17.47
2024-01-30T07:57:27.600Z,18.17
2024-01-30T07:59:55.765Z,17.80
2024-01-30T08:02:23.510Z,17.27
2024-01-30T08:04:51.782Z,17.83
2024-01-30T08:07:19.750Z,17.60
2024-01-30T08:09:49.371Z,17.93
2024-01-30T08:12:17.318Z,20.00
2024-01-30T08:14:45.031Z,18.50
2024-01-30T08:17:13.086Z,17.40
2024-01-30T08:19:41.009Z,20.40
2024-01-30T08:22:08.945Z,19.80
2024-01-30T08:24:37.006Z,19.70
2024-01-30T08:27:06.472Z,19.77
2024-01-30T08:29:34.480Z,18.07
2024-01-30T08:32:02.403Z,20.73
2024-01-30T08:34:30.373Z,17.20
2024-01-30T08:36:58.644Z,18.20
2024-01-30T08:39:27.118Z,18.53
2024-01-30T08:41:56.443Z,17.20
2024-01-30T08:44:25.936Z,14.80
2024-01-30T08:46:56.285Z,16.10
2024-01-30T08:49:24.699Z,14.37
2024-01-30T08:51:52.792Z,15.13
2024-01-30T08:54:20.586Z,16.20
2024-01-30T08:56:48.901Z,16.77
2024-01-30T08:59:17.048Z,14.90
2024-01-30T09:01:55.744Z,16.03
2024-01-30T09:04:31.625Z,14.60
2024-01-30T09:07:00.338Z,15.27
2024-01-30T09:09:28.922Z,15.80
2024-01-30T09:11:56.859Z,14.63
2024-01-30T09:14:24.978Z,14.40
2024-01-30T09:16:54.492Z,16.30
2024-01-30T09:19:22.270Z,17.17
2024-01-30T09:21:51.134Z,16.03
2024-01-30T09:24:19.351Z,14.87
2024-01-30T09:26:47.067Z,14.10
2024-01-30T09:29:15.152Z,14.00
2024-01-30T09:31:45.315Z,14.97
2024-01-30T09:34:14.805Z,14.83
2024-01-30T09:36:42.578Z,14.37
2024-01-30T09:39:11.567Z,13.97
2024-01-30T09:41:47.837Z,13.27
2024-01-30T09:44:18.064Z,15.17
2024-01-30T09:46:49.216Z,13.03
2024-01-30T09:49:21.263Z,13.47
2024-01-30T09:51:50.663Z,14.23
2024-01-30T09:54:19.744Z,13.10
2024-01-30T09:56:47.659Z,13.73
2024-01-30T09:59:16.156Z,11.80
2024-01-30T10:01:44.868Z,12.67
2024-01-30T10:04:13.221Z,13.47
2024-01-30T10:06:42.875Z,13.73
2024-01-30T10:09:10.686Z,13.47
2024-01-30T10:11:39.095Z,12.77
2024-01-30T10:14:07.483Z,13.30
2024-01-30T10:16:36.788Z,12.57
2024-01-30T10:19:05.065Z,11.90
2024-01-30T10:21:33.265Z,12.47
2024-01-30T10:24:02.581Z,15.03
2024-01-30T10:26:34.332Z,13.10
2024-01-30T10:29:02.037Z,11.80
2024-01-30T10:31:30.238Z,10.93
2024-01-30T10:34:08.273Z,10.10
2024-01-30T10:36:43.428Z,10.20
2024-01-30T10:39:13.770Z,9.83
2024-01-30T10:41:46.229Z,11.00
2024-01-30T10:44:20.481Z,11.50
2024-01-30T10:46:53.393Z,11.50
2024-01-30T10:49:23.408Z,11.50
2024-01-30T10:51:52.900Z,10.33
2024-01-30T10:54:23.162Z,11.00
2024-01-30T10:56:51.895Z,9.60
2024-01-30T10:59:20.912Z,10.83
2024-01-30T11:01:48.981Z,10.07
2024-01-30T11:04:17.312Z,10.50
2024-01-30T11:06:45.441Z,8.80
2024-01-30T11:09:15.747Z,9.77
2024-01-30T11:12:00.890Z,9.97
2024-01-30T11:14:29.767Z,9.80
2024-01-30T11:16:59.451Z,10.00
2024-01-30T11:19:28.795Z,11.40
2024-01-30T11:21:58.501Z,9.30
2024-01-30T11:24:27.314Z,9.63
2024-01-30T11:27:00.051Z,9.40
2024-01-30T11:29:29.319Z,10.63
2024-01-30T11:31:59.288Z,10.00
2024-01-30T11:34:28.275Z,10.33
2024-01-30T11:37:00.536Z,10.53
2024-01-30T11:39:28.906Z,9.87
2024-01-30T11:41:57.184Z,11.73
2024-01-30T11:44:27.088Z,10.13
2024-01-30T11:46:55.051Z,9.90
2024-01-30T11:49:23.147Z,10.97
2024-01-30T11:51:51.617Z,13.13
2024-01-30T11:54:19.890Z,11.00
2024-01-30T11:56:47.891Z,11.10
2024-01-30T11:59:16.134Z,11.00
2024-01-30T12:01:45.492Z,10.50
2024-01-30T12:04:14.141Z,10.73
2024-01-30T12:06:42.353Z,11.17
2024-01-30T12:09:14.432Z,9.70
2024-01-30T12:11:48.747Z,12.20
2024-01-30T12:14:18.301Z,10.37
2024-01-30T12:16:50.475Z,9.43
2024-01-30T12:19:24.383Z,10.00
2024-01-30T12:22:01.672Z,10.70
2024-01-30T12:24:31.272Z,11.37
2024-01-30T12:27:01.734Z,12.03
2024-01-30T12:29:32.924Z,11.67
2024-01-30T12:32:04.940Z,10.70
2024-01-30T12:34:34.927Z,10.40
2024-01-30T12:37:07.604Z,10.47
2024-01-30T12:39:35.684Z,12.07
2024-01-30T12:42:04.320Z,10.43
2024-01-30T12:44:32.422Z,10.80
2024-01-30T12:47:02.569Z,10.53
2024-01-30T12:49:31.627Z,11.10
2024-01-30T12:52:00.746Z,10.67
2024-01-30T12:54:29.066Z,11.30
2024-01-30T12:56:57.266Z,11.17
2024-01-30T12:59:25.339Z,9.50
2024-01-30T13:01:53.410Z,10.50
2024-01-30T13:04:21.693Z,10.90
2024-01-30T13:06:51.111Z,10.30
2024-01-30T13:09:18.819Z,10.43
2024-01-30T13:11:46.538Z,10.53
2024-01-30T13:14:14.595Z,10.30
2024-01-30T13:16:42.630Z,9.97
2024-01-30T13:19:10.388Z,10.37
2024-01-30T13:21:38.740Z,8.60
2024-01-30T13:24:08.648Z,9.60
2024-01-30T13:26:37.033Z,10.00
2024-01-30T13:29:04.780Z,8.50
2024-01-30T13:31:32.475Z,10.30
2024-01-30T13:34:00.861Z,9.50
2024-01-30T13:36:28.852Z,9.57
2024-01-30T13:38:56.603Z,9.70
2024-01-30T13:41:25.858Z,9.93
2024-01-30T13:43:53.507Z,9.13
2024-01-30T13:46:21.413Z,8.73
2024-01-30T13:48:49.449Z,9.27
2024-01-30T13:51:18.254Z,9.47
2024-01-30T13:53:45.921Z,8.87
2024-01-30T13:56:13.664Z,9.50
2024-01-30T13:58:42.895Z,10.80
2024-01-30T14:01:11.287Z,10.17
2024-01-30T14:03:39.117Z,9.70
2024-01-30T14:06:08.916Z,10.10
2024-01-30T14:08:36.956Z,10.70
2024-01-30T14:11:04.936Z,9.87
2024-01-30T14:13:34.066Z,8.90
2024-01-30T14:16:07.579Z,9.53
2024-01-30T14:18:38.492Z,9.97
2024-01-30T14:21:07.843Z,9.10
2024-01-30T14:23:35.640Z,9.10
2024-01-30T14:26:05.211Z,8.47
2024-01-30T14:28:32.912Z,9.40
2024-01-30T14:31:00.846Z,8.67
2024-01-30T14:33:29.913Z,8.47
2024-01-30T14:35:58.072Z,9.13
2024-01-30T14:38:26.743Z,8.80
2024-01-30T14:40:54.698Z,9.10
2024-01-30T14:43:22.465Z,9.33
2024-01-30T14:45:51.154Z,8.27
2024-01-30T14:48:19.567Z,9.90
2024-01-30T14:50:49.968Z,9.90
2024-01-30T14:53:17.843Z,9.40
2024-01-30T14:55:47.100Z,8.63
2024-01-30T14:58:14.859Z,9.03
2024-01-30T15:00:44.150Z,8.47
2024-01-30T15:03:12.322Z,8.23
2024-01-30T15:05:41.907Z,8.53
2024-01-30T15:08:11.621Z,8.63
2024-01-30T15:10:39.657Z,9.70
2024-01-30T15:13:07.534Z,9.10
2024-01-30T15:15:35.481Z,7.80
2024-01-30T15:18:04.550Z,7.90
2024-01-30T15:20:32.687Z,7.70
2024-01-30T15:23:00.400Z,7.90
2024-01-30T15:25:30.553Z,7.70
2024-01-30T15:27:58.411Z,7.43
2024-01-30T15:30:27.702Z,6.87
2024-01-30T15:32:56.168Z,7.13
2024-01-30T15:35:24.215Z,6.40
2024-01-30T15:37:54.050Z,7.83
2024-01-30T15:40:22.130Z,7.90
2024-01-30T15:42:51.501Z,8.57
2024-01-30T15:45:20.880Z,7.60
2024-01-30T15:47:48.703Z,7.73
2024-01-30T15:50:19.203Z,7.63
2024-01-30T15:52:47.250Z,6.47
2024-01-30T15:55:16.735Z,18.90
2024-01-30T15:57:45.271Z,13.33
2024-01-30T16:00:16.898Z,15.33
2024-01-30T16:02:45.650Z,12.47
2024-01-30T16:05:14.650Z,10.10
2024-01-30T16:07:43.145Z,10.43
2024-01-30T16:10:17.543Z,11.53
2024-01-30T16:12:46.467Z,10.87
2024-01-30T16:15:16.869Z,8.77
2024-01-30T16:17:44.903Z,9.73
2024-01-30T16:20:16.369Z,8.33
2024-01-30T16:22:47.137Z,8.50
2024-01-30T16:25:19.244Z,8.10
2024-01-30T16:27:47.471Z,9.40
2024-01-30T16:30:19.672Z,8.53
2024-01-30T16:32:48.033Z,8.40
2024-01-30T16:35:16.371Z,8.20
2024-01-30T16:37:44.339Z,9.13
2024-01-30T16:40:13.314Z,17.80
2024-01-30T16:42:41.403Z,13.10
2024-01-30T16:45:09.529Z,14.37
2024-01-30T16:47:39.646Z,12.40
2024-01-30T16:50:08.308Z,9.90
2024-01-30T16:52:36.543Z,8.93
2024-01-30T16:55:05.565Z,11.73
2024-01-30T16:57:35.435Z,13.60
2024-01-30T17:00:06.810Z,17.07
2024-01-30T17:02:35.203Z,16.43
2024-01-30T17:05:15.370Z,15.33
2024-01-30T17:07:49.262Z,15.83
2024-01-30T17:10:17.718Z,15.30
2024-01-30T17:12:46.267Z,16.03
2024-01-30T17:15:14.626Z,13.57
2024-01-30T17:17:42.469Z,11.23
2024-01-30T17:20:13.376Z,12.23
2024-01-30T17:22:45.228Z,11.10
2024-01-30T17:25:15.951Z,11.10
2024-01-30T17:27:46.104Z,12.17
2024-01-30T17:30:15.032Z,13.97
2024-01-30T17:32:43.173Z,13.67
2024-01-30T17:35:12.344Z,13.50
2024-01-30T17:37:41.218Z,11.93
2024-01-30T17:40:10.122Z,10.50
2024-01-30T17:42:38.135Z,11.10
2024-01-30T17:45:06.621Z,13.67
2024-01-30T17:47:35.402Z,14.23
2024-01-30T17:50:04.895Z,20.90
2024-01-30T17:52:39.536Z,18.90
2024-01-30T17:55:07.974Z,16.87
2024-01-30T17:57:35.840Z,17.83
2024-01-30T18:00:09.135Z,14.80
2024-01-30T18:02:36.802Z,13.60
2024-01-30T18:05:05.623Z,13.63
2024-01-30T18:07:35.086Z,13.50
2024-01-30T18:10:03.016Z,13.10
2024-01-30T18:12:31.309Z,13.17
2024-01-30T18:15:00.719Z,14.47
2024-01-30T18:17:31.044Z,12.60
2024-01-30T18:19:58.883Z,14.30
2024-01-30T18:22:26.649Z,14.83
2024-01-30T18:24:56.642Z,13.60
2024-01-30T18:27:24.849Z,13.43
2024-01-30T18:29:56.496Z,13.03
2024-01-30T18:32:26.746Z,13.37
2024-01-30T18:34:54.621Z,14.33
2024-01-30T18:37:22.597Z,13.00
2024-01-30T18:39:50.689Z,14.60
2024-01-30T18:42:20.014Z,11.97
2024-01-30T18:44:48.333Z,12.57
2024-01-30T18:47:18.772Z,12.70
2024-01-30T18:49:46.786Z,12.30
2024-01-30T18:52:14.932Z,13.77
2024-01-30T18:54:43.170Z,15.03
2024-01-30T18:57:11.037Z,13.37
2024-01-30T18:59:40.361Z,12.43
2024-01-30T19:02:08.578Z,11.83
2024-01-30T19:04:36.469Z,13.47
2024-01-30T19:07:04.365Z,13.47
2024-01-30T19:09:34.449Z,16.87
2024-01-30T19:12:04.606Z,17.00
2024-01-30T19:14:33.158Z,16.07
2024-01-30T19:17:02.183Z,16.07
2024-01-30T19:19:31.061Z,15.17
2024-01-30T19:21:58.902Z,15.77
2024-01-30T19:24:26.758Z,18.40
2024-01-30T19:26:54.612Z,21.60
2024-01-30T19:29:22.391Z,21.80
2024-01-30T19:31:50.350Z,21.77
2024-01-30T19:34:19.881Z,23.30
2024-01-30T19:36:50.256Z,20.20
2024-01-30T19:39:18.522Z,17.00
2024-01-30T19:41:46.578Z,16.83
2024-01-30T19:44:14.335Z,17.10
2024-01-30T19:46:42.834Z,16.20
2024-01-30T19:49:11.050Z,17.73
2024-01-30T19:51:40.560Z,16.87
2024-01-30T19:54:11.775Z,16.60
2024-01-30T19:56:39.967Z,17.60
2024-01-30T19:59:08.049Z,15.80
2024-01-30T20:01:36.427Z,16.43
2024-01-30T20:04:04.618Z,16.60
2024-01-30T20:06:32.487Z,14.80
2024-01-30T20:09:01.578Z,14.40
2024-01-30T20:11:32.949Z,16.70
2024-01-30T20:14:02.809Z,18.17
2024-01-30T20:16:38.808Z,17.13
2024-01-30T20:19:11.654Z,14.50
2024-01-30T20:21:41.583Z,15.80
2024-01-30T20:24:11.968Z,15.80
2024-01-30T20:26:39.644Z,15.70
2024-01-30T20:29:07.925Z,16.47
2024-01-30T20:31:36.248Z,16.17
2024-01-30T20:34:04.001Z,17.20
2024-01-30T20:36:31.950Z,16.77
2024-01-30T20:38:59.749Z,15.53
2024-01-30T20:41:28.893Z,15.83
2024-01-30T20:43:57.215Z,15.83
2024-01-30T20:46:25.246Z,14.73
2024-01-30T20:48:53.307Z,16.33
2024-01-30T20:51:21.246Z,16.77
2024-01-30T20:53:49.388Z,14.20
2024-01-30T20:56:17.217Z,14.33
2024-01-30T20:58:46.510Z,15.03
2024-01-30T21:01:14.207Z,13.77
2024-01-30T21:03:43.171Z,14.40
2024-01-30T21:06:11.572Z,14.97
2024-01-30T21:08:41.443Z,14.07
2024-01-30T21:11:09.608Z,14.17
2024-01-30T21:13:38.058Z,15.03
2024-01-30T21:16:07.325Z,14.83
2024-01-30T21:18:37.789Z,15.77
2024-01-30T21:21:06.646Z,16.50
2024-01-30T21:23:34.586Z,14.40
2024-01-30T21:26:04.850Z,14.67
2024-01-30T21:28:32.756Z,14.67
2024-01-30T21:31:00.807Z,16.50
2024-01-30T21:33:30.293Z,15.70
2024-01-30T21:35:59.530Z,15.40
2024-01-30T21:38:28.465Z,22.90
2024-01-30T21:40:56.136Z,23.20
2024-01-30T21:43:24.444Z,21.50
2024-01-30T21:45:52.572Z,19.50
2024-01-30T21:48:20.396Z,23.13
2024-01-30T21:50:49.516Z,19.10
2024-01-30T21:53:17.928Z,19.23
2024-01-30T21:55:47.220Z,18.77
2024-01-30T21:58:15.520Z,16.67
2024-01-30T22:00:43.573Z,16.27
2024-01-30T22:03:11.788Z,19.40
2024-01-30T22:05:39.652Z,21.80
2024-01-30T22:08:09.032Z,19.70
2024-01-30T22:10:37.392Z,19.30
2024-01-30T22:13:05.443Z,20.50
2024-01-30T22:15:34.060Z,19.70
2024-01-30T22:18:01.859Z,19.97
2024-01-30T22:20:30.188Z,19.73
2024-01-30T22:22:57.996Z,21.10
2024-01-30T22:25:27.188Z,22.13
2024-01-30T22:27:55.223Z,18.90
2024-01-30T22:30:23.216Z,20.50
2024-01-30T22:32:51.038Z,22.20
2024-01-30T22:35:19.313Z,21.73
2024-01-30T22:37:47.114Z,23.23
2024-01-30T22:40:15.412Z,24.10
2024-01-30T22:42:45.234Z,23.10
2024-01-30T22:45:13.290Z,21.67
2024-01-30T22:47:40.956Z,21.27
2024-01-30T22:50:09.644Z,20.00
2024-01-30T22:52:37.558Z,19.97
2024-01-30T22:55:06.536Z,17.93
2024-01-30T22:57:34.716Z,20.80
2024-01-30T23:00:08.603Z,20.87
2024-01-30T23:02:36.485Z,20.17
2024-01-30T23:05:04.916Z,19.80
2024-01-30T23:07:37.173Z,18.77
2024-01-30T23:10:05.531Z,17.43
2024-01-30T23:12:34.151Z,17.93
2024-01-30T23:15:03.625Z,17.90
2024-01-30T23:17:33.588Z,19.63
2024-01-30T23:20:02.176Z,19.97
2024-01-30T23:22:30.736Z,20.23
2024-01-30T23:24:58.925Z,18.83
2024-01-30T23:27:26.682Z,19.20
2024-01-30T23:29:54.949Z,18.10
2024-01-30T23:32:30.054Z,18.43
2024-01-30T23:35:04.462Z,19.50
2024-01-30T23:37:33.174Z,18.73
2024-01-30T23:40:01.037Z,19.57
2024-01-30T23:42:28.744Z,17.50
2024-01-30T23:44:56.444Z,20.07
2024-01-30T23:47:24.279Z,19.10
2024-01-30T23:49:52.146Z,18.07
2024-01-30T23:52:22.402Z,19.57
2024-01-30T23:54:50.230Z,18.50
2024-01-30T23:57:19.058Z,18.50
2024-01-30T23:59:47.195Z,20.03
